METAR Data
IDs: Format: Raw Decoded Include TAF

Data at: 1215 UTC 23 Jun 2021

METAR for:KOTH (North Bend/SW Oregon, OR, US)
Text:KOTH 231156Z AUTO 34005KT 4SM BR OVC014 13/12 A2997 RMK AO2 SLP146 60002 70002 T01280122 10139 20128 53002
Temperature: 12.8°C ( 55°F)
Dewpoint: 12.2°C ( 54°F) [RH = 96%]
Pressure (altimeter):29.97 inches Hg (1015.0 mb) [Sea level pressure: 1014.6 mb]
Winds:from the NNW (340 degrees) at 6 MPH (5 knots; 2.6 m/s)
Visibility: 4 sm ( 6 km)
Ceiling:1400 feet AGL
Clouds: overcast cloud deck at 1400 feet AGL
Weather:BR (mist)
QC Flag:automated observation with no human augmentation
Text:KOTH 231117Z AUTO 35006KT 6SM BR SCT004 BKN012 OVC016 13/13 A2997 RMK AO2
Temperature: 13.0°C ( 55°F)
Dewpoint: 13.0°C ( 55°F) [RH = 100%]
Pressure (altimeter):29.97 inches Hg (1015.0 mb)
Winds:from the N (350 degrees) at 7 MPH (6 knots; 3.1 m/s)
Visibility: 6 sm ( 10 km)
Ceiling:1200 feet AGL
Clouds: scattered clouds at 400 feet AGL, broken clouds at 1200 feet AGL, overcast cloud deck at 1600 feet AGL
Weather:BR (mist)
QC Flag:automated observation with no human augmentation
Text:KOTH 231056Z AUTO 35007KT 8SM OVC004 13/13 A2996 RMK AO2 RAB07E52 SLP145 P0000 T01330128
Temperature: 13.3°C ( 56°F)
Dewpoint: 12.8°C ( 55°F) [RH = 97%]
Pressure (altimeter):29.96 inches Hg (1014.6 mb) [Sea level pressure: 1014.5 mb]
Winds:from the N (350 degrees) at 8 MPH (7 knots; 3.6 m/s)
Visibility: 8 sm ( 13 km)
Ceiling:400 feet AGL
Clouds: overcast cloud deck at 400 feet AGL
QC Flag:automated observation with no human augmentation
Text:KOTH 231039Z AUTO 34007KT 3SM -RA BR OVC004 13/13 A2996 RMK AO2 RAB07 P0000
Temperature: 13.0°C ( 55°F)
Dewpoint: 13.0°C ( 55°F) [RH = 100%]
Pressure (altimeter):29.96 inches Hg (1014.6 mb)
Winds:from the NNW (340 degrees) at 8 MPH (7 knots; 3.6 m/s)
Visibility: 3 sm ( 5 km)
Ceiling:400 feet AGL
Clouds: overcast cloud deck at 400 feet AGL
Weather:-RA BR (light rain, mist)
QC Flag:automated observation with no human augmentation
Text:KOTH 231023Z AUTO 35008KT 2SM -RA BR OVC004 13/13 A2996 RMK AO2 RAB07 P0000
Temperature: 13.0°C ( 55°F)
Dewpoint: 13.0°C ( 55°F) [RH = 100%]
Pressure (altimeter):29.96 inches Hg (1014.6 mb)
Winds:from the N (350 degrees) at 9 MPH (8 knots; 4.1 m/s)
Visibility: 2.00 sm ( 3.22 km)
Ceiling:400 feet AGL
Clouds: overcast cloud deck at 400 feet AGL
Weather:-RA BR (light rain, mist)
QC Flag:automated observation with no human augmentation

METAR for:KAST (Astoria Rgnl, OR, US)
Text:KAST 231155Z AUTO 25003KT 10SM OVC017 13/12 A2993 RMK AO2 SLP133 T01280117 10139 20122 53001
Temperature: 12.8°C ( 55°F)
Dewpoint: 11.7°C ( 53°F) [RH = 93%]
Pressure (altimeter):29.93 inches Hg (1013.6 mb) [Sea level pressure: 1013.3 mb]
Winds:from the WSW (250 degrees) at 3 MPH (3 knots; 1.5 m/s)
Visibility:10 or more sm (16+ km)
Ceiling:1700 feet AGL
Clouds: overcast cloud deck at 1700 feet AGL
QC Flag:automated observation with no human augmentation
Text:KAST 231055Z AUTO 26003KT 9SM FEW007 OVC015 13/12 A2992 RMK AO2 SLP133 T01280117
Temperature: 12.8°C ( 55°F)
Dewpoint: 11.7°C ( 53°F) [RH = 93%]
Pressure (altimeter):29.92 inches Hg (1013.3 mb) [Sea level pressure: 1013.3 mb]
Winds:from the W (260 degrees) at 3 MPH (3 knots; 1.5 m/s)
Visibility: 9 sm ( 14 km)
Ceiling:1500 feet AGL
Clouds: few clouds at 700 feet AGL, overcast cloud deck at 1500 feet AGL
QC Flag:automated observation with no human augmentation
Text:KAST 231035Z AUTO 25004KT 7SM FEW008 OVC015 13/12 A2992 RMK AO2 T01280117
Temperature: 12.8°C ( 55°F)
Dewpoint: 11.7°C ( 53°F) [RH = 93%]
Pressure (altimeter):29.92 inches Hg (1013.3 mb)
Winds:from the WSW (250 degrees) at 5 MPH (4 knots; 2.1 m/s)
Visibility: 7 sm ( 11 km)
Ceiling:1500 feet AGL
Clouds: few clouds at 800 feet AGL, overcast cloud deck at 1500 feet AGL
QC Flag:automated observation with no human augmentation
Text:KAST 231028Z AUTO 26005KT 10SM FEW010 OVC016 13/12 A2992 RMK AO2 T01280117
Temperature: 12.8°C ( 55°F)
Dewpoint: 11.7°C ( 53°F) [RH = 93%]
Pressure (altimeter):29.92 inches Hg (1013.3 mb)
Winds:from the W (260 degrees) at 6 MPH (5 knots; 2.6 m/s)
Visibility:10 or more sm (16+ km)
Ceiling:1600 feet AGL
Clouds: few clouds at 1000 feet AGL, overcast cloud deck at 1600 feet AGL
QC Flag:automated observation with no human augmentation

METAR for:KPDX (Portland Intl Arpt, OR, US)
Text:KPDX 231153Z 35003KT 10SM FEW012 FEW200 14/11 A2991 RMK AO2 SLP126 T01440111 10211 20144 53012
Temperature: 14.4°C ( 58°F)
Dewpoint: 11.1°C ( 52°F) [RH = 81%]
Pressure (altimeter):29.91 inches Hg (1013.0 mb) [Sea level pressure: 1012.6 mb]
Winds:from the N (350 degrees) at 3 MPH (3 knots; 1.5 m/s)
Visibility:10 or more sm (16+ km)
Ceiling:at least 12,000 feet AGL
Clouds: few clouds at 1200 feet AGL, few clouds at 20000 feet AGL
Text:KPDX 231053Z 32007KT 10SM FEW200 15/12 A2990 RMK AO2 SLP121 T01500117
Temperature: 15.0°C ( 59°F)
Dewpoint: 11.7°C ( 53°F) [RH = 81%]
Pressure (altimeter):29.90 inches Hg (1012.6 mb) [Sea level pressure: 1012.1 mb]
Winds:from the NW (320 degrees) at 8 MPH (7 knots; 3.6 m/s)
Visibility:10 or more sm (16+ km)
Ceiling:at least 12,000 feet AGL
Clouds: few clouds at 20000 feet AGL

METAR for:KDLS (The Dalles Muni, OR, US)
Text:KDLS 231153Z AUTO 00000KT 10SM CLR 21/13 A2980 RMK AO2 SLP087 T02110128 10250 20211 53013
Temperature: 21.1°C ( 70°F)
Dewpoint: 12.8°C ( 55°F) [RH = 59%]
Pressure (altimeter):29.80 inches Hg (1009.2 mb) [Sea level pressure: 1008.7 mb]
Winds:calm
Visibility:10 or more sm (16+ km)
Ceiling:at least 12,000 feet AGL
Clouds:sky clear below 12,000 feet AGL
QC Flag:automated observation with no human augmentation
Text:KDLS 231053Z AUTO 31010KT 10SM CLR 22/13 A2978 RMK AO2 SLP084 T02170128
Temperature: 21.7°C ( 71°F)
Dewpoint: 12.8°C ( 55°F) [RH = 57%]
Pressure (altimeter):29.78 inches Hg (1008.5 mb) [Sea level pressure: 1008.4 mb]
Winds:from the NW (310 degrees) at 12 MPH (10 knots; 5.1 m/s)
Visibility:10 or more sm (16+ km)
Ceiling:at least 12,000 feet AGL
Clouds:sky clear below 12,000 feet AGL
QC Flag:automated observation with no human augmentation

METAR for:KPSC (Pasco/Tri Cities Arp, WA, US)
Text:KPSC 231153Z AUTO 21010KT 10SM CLR 23/12 A2974 RMK AO2 SLP065 T02330122 10289 20233 52014
Temperature: 23.3°C ( 74°F)
Dewpoint: 12.2°C ( 54°F) [RH = 50%]
Pressure (altimeter):29.74 inches Hg (1007.2 mb) [Sea level pressure: 1006.5 mb]
Winds:from the SSW (210 degrees) at 12 MPH (10 knots; 5.1 m/s)
Visibility:10 or more sm (16+ km)
Ceiling:at least 12,000 feet AGL
Clouds:sky clear below 12,000 feet AGL
QC Flag:automated observation with no human augmentation
Text:KPSC 231053Z AUTO 22012G19KT 10SM CLR 24/13 A2972 RMK AO2 SLP060 T02440128
Temperature: 24.4°C ( 76°F)
Dewpoint: 12.8°C ( 55°F) [RH = 48%]
Pressure (altimeter):29.72 inches Hg (1006.5 mb) [Sea level pressure: 1006.0 mb]
Winds:from the SW (220 degrees) at 14 MPH (12 knots; 6.2 m/s) gusting to 22 MPH (19 knots; 9.8 m/s)
Visibility:10 or more sm (16+ km)
Ceiling:at least 12,000 feet AGL
Clouds:sky clear below 12,000 feet AGL
QC Flag:automated observation with no human augmentation

METAR for:KHRI (Hermiston Muni, OR, US)
Text:KHRI 231153Z AUTO 23010KT 10SM CLR 23/09 A2978 RMK AO2 SLP076 T02330089 10283 20233 53016
Temperature: 23.3°C ( 74°F)
Dewpoint: 8.9°C ( 48°F) [RH = 40%]
Pressure (altimeter):29.78 inches Hg (1008.5 mb) [Sea level pressure: 1007.6 mb]
Winds:from the SW (230 degrees) at 12 MPH (10 knots; 5.1 m/s)
Visibility:10 or more sm (16+ km)
Ceiling:at least 12,000 feet AGL
Clouds:sky clear below 12,000 feet AGL
QC Flag:automated observation with no human augmentation
Text:KHRI 231053Z AUTO 24010G17KT 10SM CLR 24/10 A2976 RMK AO2 SLP071 T02390100
Temperature: 23.9°C ( 75°F)
Dewpoint: 10.0°C ( 50°F) [RH = 41%]
Pressure (altimeter):29.76 inches Hg (1007.9 mb) [Sea level pressure: 1007.1 mb]
Winds:from the WSW (240 degrees) at 12 MPH (10 knots; 5.1 m/s) gusting to 20 MPH (17 knots; 8.7 m/s)
Visibility:10 or more sm (16+ km)
Ceiling:at least 12,000 feet AGL
Clouds:sky clear below 12,000 feet AGL
QC Flag:automated observation with no human augmentation

METAR for:KGEG (Spokane Intl, WA, US)
Text:KGEG 231153Z 19010KT 10SM BKN150 BKN200 21/09 A2977 RMK AO2 SLP059 T02110094 10250 20211 53008
Temperature: 21.1°C ( 70°F)
Dewpoint: 9.4°C ( 49°F) [RH = 47%]
Pressure (altimeter):29.77 inches Hg (1008.2 mb) [Sea level pressure: 1005.9 mb]
Winds:from the S (190 degrees) at 12 MPH (10 knots; 5.1 m/s)
Visibility:10 or more sm (16+ km)
Ceiling:15000 feet AGL
Clouds: broken clouds at 15000 feet AGL, broken clouds at 20000 feet AGL
Text:KGEG 231053Z 16005KT 10SM BKN180 BKN230 21/09 A2976 RMK AO2 SLP054 T02110094
Temperature: 21.1°C ( 70°F)
Dewpoint: 9.4°C ( 49°F) [RH = 47%]
Pressure (altimeter):29.76 inches Hg (1007.9 mb) [Sea level pressure: 1005.4 mb]
Winds:from the SSE (160 degrees) at 6 MPH (5 knots; 2.6 m/s)
Visibility:10 or more sm (16+ km)
Ceiling:18000 feet AGL
Clouds: broken clouds at 18000 feet AGL, broken clouds at 23000 feet AGL